Bob Sikes Airport Crestview US
ICAO: KCEW
IATA: CEW
Category: Medium
Scheduled Services: No

Elevation: 213 ft
TransAlt. 18000 ft.

Airport Communications:
EGLIN APP/DEP:124.05
ASOS:119.275
GAINESVILLE RDO:122
CTAF/UNICOM:122.95

KCEW Zoom In..

Runways:

(A) RW 17 length 8004 ft width 150 ft
ILS 111.90 / hdg 171

(B) RW 35 length 8004 ft width 150 ft
---- / hdg 351

Location; KCEW
Day. 19 / Time. 20.53 Zulu
* Altimeter: 29.89
* Temperature: 30° c. 86°f.
* Wind from: 200° Speed 09 kn.
Dewpoint: 22° c.
Visibility: 10 Statute Miles.
Clouds: Scattered 4200 ft.
Clouds: Scattered 4900 ft.
Clouds: Broken 1000 ft.

KCEW 192053Z AUTO 20009KT 10SM VCTS SCT042 SCT049 BKN100 30/22 A2989 RMK AO2 LTG DSNT E-SW SLP118 T03000222 55004


Wind From 200°
Speed 09 kn.

 
 
jpsmedia.com for Web Design worldairports.se 2018   terms of use